sensor_id;sensor_type;location;lat;lon;timestamp;P1;durP1;ratioP1;P2;durP2;ratioP2
11084;SDS011;5596;46.826;8.650;2022-11-14T00:01:42;16.17;;;10.43;;
11084;SDS011;5596;46.826;8.650;2022-11-14T00:04:28;16.40;;;10.07;;
11084;SDS011;5596;46.826;8.650;2022-11-14T00:07:13;17.43;;;10.80;;
11084;SDS011;5596;46.826;8.650;2022-11-14T00:09:59;21.83;;;11.20;;
11084;SDS011;5596;46.826;8.650;2022-11-14T00:12:44;15.53;;;10.37;;
11084;SDS011;5596;46.826;8.650;2022-11-14T00:15:31;19.17;;;11.03;;
11084;SDS011;5596;46.826;8.650;2022-11-14T00:18:17;14.37;;;9.97;;
11084;SDS011;5596;46.826;8.650;2022-11-14T00:21:02;19.73;;;11.17;;
11084;SDS011;5596;46.826;8.650;2022-11-14T00:23:48;17.60;;;10.97;;
11084;SDS011;5596;46.826;8.650;2022-11-14T00:26:34;17.20;;;11.23;;
11084;SDS011;5596;46.826;8.650;2022-11-14T00:29:19;16.77;;;11.33;;
11084;SDS011;5596;46.826;8.650;2022-11-14T00:32:06;18.90;;;11.60;;
11084;SDS011;5596;46.826;8.650;2022-11-14T00:34:52;17.73;;;10.73;;
11084;SDS011;5596;46.826;8.650;2022-11-14T00:37:38;17.47;;;10.87;;
11084;SDS011;5596;46.826;8.650;2022-11-14T00:40:24;20.57;;;12.13;;
11084;SDS011;5596;46.826;8.650;2022-11-14T00:43:09;16.73;;;10.87;;
11084;SDS011;5596;46.826;8.650;2022-11-14T00:45:55;17.40;;;11.63;;
11084;SDS011;5596;46.826;8.650;2022-11-14T00:48:42;19.80;;;11.43;;
11084;SDS011;5596;46.826;8.650;2022-11-14T00:51:28;15.60;;;11.00;;
11084;SDS011;5596;46.826;8.650;2022-11-14T00:54:14;17.00;;;10.30;;
11084;SDS011;5596;46.826;8.650;2022-11-14T00:56:59;16.27;;;10.30;;
11084;SDS011;5596;46.826;8.650;2022-11-14T00:59:45;16.60;;;10.43;;
11084;SDS011;5596;46.826;8.650;2022-11-14T01:02:32;19.90;;;11.63;;
11084;SDS011;5596;46.826;8.650;2022-11-14T01:05:19;16.87;;;10.67;;
11084;SDS011;5596;46.826;8.650;2022-11-14T01:08:04;15.23;;;9.80;;
11084;SDS011;5596;46.826;8.650;2022-11-14T01:10:50;16.40;;;10.87;;
11084;SDS011;5596;46.826;8.650;2022-11-14T01:13:36;17.00;;;10.67;;
11084;SDS011;5596;46.826;8.650;2022-11-14T01:16:22;16.37;;;11.20;;
11084;SDS011;5596;46.826;8.650;2022-11-14T01:19:08;14.23;;;10.37;;
11084;SDS011;5596;46.826;8.650;2022-11-14T01:21:54;16.30;;;10.37;;
11084;SDS011;5596;46.826;8.650;2022-11-14T01:24:40;17.53;;;10.77;;
11084;SDS011;5596;46.826;8.650;2022-11-14T01:27:29;15.30;;;10.37;;
11084;SDS011;5596;46.826;8.650;2022-11-14T01:30:16;15.87;;;10.53;;
11084;SDS011;5596;46.826;8.650;2022-11-14T01:33:02;15.13;;;9.87;;
11084;SDS011;5596;46.826;8.650;2022-11-14T01:35:48;16.33;;;10.73;;
11084;SDS011;5596;46.826;8.650;2022-11-14T01:38:35;15.53;;;9.93;;
11084;SDS011;5596;46.826;8.650;2022-11-14T01:41:21;14.97;;;10.33;;
11084;SDS011;5596;46.826;8.650;2022-11-14T01:44:11;15.53;;;10.40;;
11084;SDS011;5596;46.826;8.650;2022-11-14T01:46:57;16.00;;;10.00;;
11084;SDS011;5596;46.826;8.650;2022-11-14T01:49:44;14.23;;;10.30;;
11084;SDS011;5596;46.826;8.650;2022-11-14T01:52:32;15.37;;;9.73;;
11084;SDS011;5596;46.826;8.650;2022-11-14T01:55:22;15.07;;;10.20;;
11084;SDS011;5596;46.826;8.650;2022-11-14T01:58:10;13.73;;;9.93;;
11084;SDS011;5596;46.826;8.650;2022-11-14T02:00:56;14.33;;;10.07;;
11084;SDS011;5596;46.826;8.650;2022-11-14T02:03:43;14.13;;;9.70;;
11084;SDS011;5596;46.826;8.650;2022-11-14T02:06:32;14.97;;;10.23;;
11084;SDS011;5596;46.826;8.650;2022-11-14T02:09:19;14.47;;;9.83;;
11084;SDS011;5596;46.826;8.650;2022-11-14T02:12:07;13.43;;;9.30;;
11084;SDS011;5596;46.826;8.650;2022-11-14T02:14:56;17.83;;;10.17;;
11084;SDS011;5596;46.826;8.650;2022-11-14T02:17:43;14.20;;;9.70;;
11084;SDS011;5596;46.826;8.650;2022-11-14T02:20:32;15.20;;;9.73;;
11084;SDS011;5596;46.826;8.650;2022-11-14T02:23:26;15.93;;;10.43;;
11084;SDS011;5596;46.826;8.650;2022-11-14T02:26:14;16.47;;;9.87;;
11084;SDS011;5596;46.826;8.650;2022-11-14T02:29:01;16.23;;;10.13;;
11084;SDS011;5596;46.826;8.650;2022-11-14T02:31:48;15.23;;;9.67;;
11084;SDS011;5596;46.826;8.650;2022-11-14T02:34:33;15.17;;;9.83;;
11084;SDS011;5596;46.826;8.650;2022-11-14T02:37:20;13.37;;;9.17;;
11084;SDS011;5596;46.826;8.650;2022-11-14T02:40:06;13.20;;;9.30;;
11084;SDS011;5596;46.826;8.650;2022-11-14T02:42:53;1.70;;;1.30;;
11084;SDS011;5596;46.826;8.650;2022-11-14T02:45:39;1.30;;;1.20;;
11084;SDS011;5596;46.826;8.650;2022-11-14T02:48:25;1.13;;;1.03;;
11084;SDS011;5596;46.826;8.650;2022-11-14T02:51:11;1.20;;;1.10;;
11084;SDS011;5596;46.826;8.650;2022-11-14T02:53:57;1.10;;;1.10;;
11084;SDS011;5596;46.826;8.650;2022-11-14T02:56:43;1.10;;;1.00;;
11084;SDS011;5596;46.826;8.650;2022-11-14T02:59:29;1.00;;;0.90;;
11084;SDS011;5596;46.826;8.650;2022-11-14T03:02:14;0.80;;;0.80;;
11084;SDS011;5596;46.826;8.650;2022-11-14T03:04:59;0.80;;;0.80;;
11084;SDS011;5596;46.826;8.650;2022-11-14T03:07:46;1.07;;;1.00;;
11084;SDS011;5596;46.826;8.650;2022-11-14T03:10:33;1.40;;;1.07;;
11084;SDS011;5596;46.826;8.650;2022-11-14T03:13:18;1.00;;;0.90;;
11084;SDS011;5596;46.826;8.650;2022-11-14T03:16:04;0.80;;;0.80;;
11084;SDS011;5596;46.826;8.650;2022-11-14T03:18:51;1.00;;;0.90;;
11084;SDS011;5596;46.826;8.650;2022-11-14T03:21:37;0.80;;;0.80;;
11084;SDS011;5596;46.826;8.650;2022-11-14T03:24:23;0.70;;;0.70;;
11084;SDS011;5596;46.826;8.650;2022-11-14T03:27:10;0.80;;;0.80;;
11084;SDS011;5596;46.826;8.650;2022-11-14T03:29:56;0.90;;;0.90;;
11084;SDS011;5596;46.826;8.650;2022-11-14T03:32:41;0.70;;;0.70;;
11084;SDS011;5596;46.826;8.650;2022-11-14T03:35:27;0.63;;;0.63;;
11084;SDS011;5596;46.826;8.650;2022-11-14T03:38:13;3.30;;;0.80;;
11084;SDS011;5596;46.826;8.650;2022-11-14T03:40:59;0.77;;;0.77;;
11084;SDS011;5596;46.826;8.650;2022-11-14T03:43:46;0.80;;;0.70;;
11084;SDS011;5596;46.826;8.650;2022-11-14T03:46:32;0.80;;;0.80;;
11084;SDS011;5596;46.826;8.650;2022-11-14T03:49:18;0.70;;;0.70;;
11084;SDS011;5596;46.826;8.650;2022-11-14T03:52:04;0.80;;;0.80;;
11084;SDS011;5596;46.826;8.650;2022-11-14T03:54:50;0.90;;;0.90;;
11084;SDS011;5596;46.826;8.650;2022-11-14T03:57:36;0.80;;;0.80;;
11084;SDS011;5596;46.826;8.650;2022-11-14T04:00:23;1.67;;;0.77;;
11084;SDS011;5596;46.826;8.650;2022-11-14T04:03:10;0.83;;;0.80;;
11084;SDS011;5596;46.826;8.650;2022-11-14T04:05:56;1.10;;;0.97;;
11084;SDS011;5596;46.826;8.650;2022-11-14T04:08:42;0.87;;;0.87;;
11084;SDS011;5596;46.826;8.650;2022-11-14T04:11:27;0.87;;;0.87;;
11084;SDS011;5596;46.826;8.650;2022-11-14T04:14:12;0.80;;;0.80;;
11084;SDS011;5596;46.826;8.650;2022-11-14T04:16:59;0.90;;;0.90;;
11084;SDS011;5596;46.826;8.650;2022-11-14T04:19:44;0.80;;;0.80;;
11084;SDS011;5596;46.826;8.650;2022-11-14T04:22:31;1.07;;;0.80;;
11084;SDS011;5596;46.826;8.650;2022-11-14T04:25:16;0.90;;;0.87;;
11084;SDS011;5596;46.826;8.650;2022-11-14T04:28:02;0.83;;;0.80;;
11084;SDS011;5596;46.826;8.650;2022-11-14T04:30:48;1.10;;;0.97;;
11084;SDS011;5596;46.826;8.650;2022-11-14T04:33:35;1.07;;;0.83;;
11084;SDS011;5596;46.826;8.650;2022-11-14T04:36:20;0.70;;;0.70;;
11084;SDS011;5596;46.826;8.650;2022-11-14T04:39:06;0.90;;;0.90;;
11084;SDS011;5596;46.826;8.650;2022-11-14T04:41:52;0.80;;;0.80;;
11084;SDS011;5596;46.826;8.650;2022-11-14T04:44:38;1.00;;;1.00;;
11084;SDS011;5596;46.826;8.650;2022-11-14T04:47:24;1.77;;;0.80;;
11084;SDS011;5596;46.826;8.650;2022-11-14T04:50:10;0.90;;;0.90;;
11084;SDS011;5596;46.826;8.650;2022-11-14T04:52:56;0.80;;;0.80;;
11084;SDS011;5596;46.826;8.650;2022-11-14T04:55:42;0.80;;;0.80;;
11084;SDS011;5596;46.826;8.650;2022-11-14T04:58:29;0.70;;;0.70;;
11084;SDS011;5596;46.826;8.650;2022-11-14T05:01:14;0.80;;;0.80;;
11084;SDS011;5596;46.826;8.650;2022-11-14T05:03:59;0.83;;;0.83;;
11084;SDS011;5596;46.826;8.650;2022-11-14T05:06:46;1.33;;;1.13;;
11084;SDS011;5596;46.826;8.650;2022-11-14T05:09:32;0.70;;;0.70;;
11084;SDS011;5596;46.826;8.650;2022-11-14T05:12:19;1.00;;;0.90;;
11084;SDS011;5596;46.826;8.650;2022-11-14T05:15:05;0.70;;;0.70;;
11084;SDS011;5596;46.826;8.650;2022-11-14T05:17:51;0.73;;;0.70;;
11084;SDS011;5596;46.826;8.650;2022-11-14T05:20:36;0.70;;;0.70;;
11084;SDS011;5596;46.826;8.650;2022-11-14T05:23:24;0.70;;;0.70;;
11084;SDS011;5596;46.826;8.650;2022-11-14T05:26:10;0.80;;;0.80;;
11084;SDS011;5596;46.826;8.650;2022-11-14T05:28:58;0.70;;;0.70;;
11084;SDS011;5596;46.826;8.650;2022-11-14T05:31:43;0.67;;;0.67;;
11084;SDS011;5596;46.826;8.650;2022-11-14T05:34:28;0.90;;;0.70;;
11084;SDS011;5596;46.826;8.650;2022-11-14T05:37:14;0.70;;;0.70;;
11084;SDS011;5596;46.826;8.650;2022-11-14T05:40:01;2.10;;;0.77;;
11084;SDS011;5596;46.826;8.650;2022-11-14T05:42:47;1.53;;;0.80;;
11084;SDS011;5596;46.826;8.650;2022-11-14T05:45:33;0.60;;;0.60;;
11084;SDS011;5596;46.826;8.650;2022-11-14T05:48:18;0.60;;;0.60;;
11084;SDS011;5596;46.826;8.650;2022-11-14T05:51:04;0.90;;;0.80;;
11084;SDS011;5596;46.826;8.650;2022-11-14T05:53:51;0.63;;;0.63;;
11084;SDS011;5596;46.826;8.650;2022-11-14T05:56:38;0.70;;;0.70;;
11084;SDS011;5596;46.826;8.650;2022-11-14T05:59:24;1.00;;;0.90;;
11084;SDS011;5596;46.826;8.650;2022-11-14T06:02:10;0.90;;;0.90;;
11084;SDS011;5596;46.826;8.650;2022-11-14T06:04:55;0.80;;;0.80;;
11084;SDS011;5596;46.826;8.650;2022-11-14T06:07:41;0.80;;;0.80;;
11084;SDS011;5596;46.826;8.650;2022-11-14T06:10:26;2.43;;;1.27;;
11084;SDS011;5596;46.826;8.650;2022-11-14T06:13:13;0.63;;;0.63;;
11084;SDS011;5596;46.826;8.650;2022-11-14T06:15:59;0.80;;;0.80;;
11084;SDS011;5596;46.826;8.650;2022-11-14T06:18:45;1.00;;;0.77;;
11084;SDS011;5596;46.826;8.650;2022-11-14T06:21:31;0.60;;;0.60;;
11084;SDS011;5596;46.826;8.650;2022-11-14T06:24:17;0.87;;;0.87;;
11084;SDS011;5596;46.826;8.650;2022-11-14T06:27:03;0.70;;;0.70;;
11084;SDS011;5596;46.826;8.650;2022-11-14T06:29:50;0.70;;;0.70;;
11084;SDS011;5596;46.826;8.650;2022-11-14T06:32:36;0.63;;;0.63;;
11084;SDS011;5596;46.826;8.650;2022-11-14T06:35:21;0.70;;;0.70;;
11084;SDS011;5596;46.826;8.650;2022-11-14T06:38:07;0.67;;;0.67;;
11084;SDS011;5596;46.826;8.650;2022-11-14T06:43:46;0.63;;;0.63;;
11084;SDS011;5596;46.826;8.650;2022-11-14T06:46:33;0.70;;;0.70;;
11084;SDS011;5596;46.826;8.650;2022-11-14T06:49:19;0.73;;;0.70;;
11084;SDS011;5596;46.826;8.650;2022-11-14T06:52:05;0.50;;;0.50;;
11084;SDS011;5596;46.826;8.650;2022-11-14T06:54:50;0.60;;;0.60;;
11084;SDS011;5596;46.826;8.650;2022-11-14T06:57:37;0.50;;;0.50;;
11084;SDS011;5596;46.826;8.650;2022-11-14T07:00:23;0.60;;;0.60;;
11084;SDS011;5596;46.826;8.650;2022-11-14T07:03:10;0.60;;;0.60;;
11084;SDS011;5596;46.826;8.650;2022-11-14T07:05:56;0.53;;;0.53;;
11084;SDS011;5596;46.826;8.650;2022-11-14T07:08:42;0.50;;;0.50;;
11084;SDS011;5596;46.826;8.650;2022-11-14T07:11:27;0.63;;;0.63;;
11084;SDS011;5596;46.826;8.650;2022-11-14T07:14:14;0.80;;;0.80;;
11084;SDS011;5596;46.826;8.650;2022-11-14T07:17:00;0.70;;;0.70;;
11084;SDS011;5596;46.826;8.650;2022-11-14T07:19:48;0.70;;;0.70;;
11084;SDS011;5596;46.826;8.650;2022-11-14T07:22:34;0.87;;;0.80;;
11084;SDS011;5596;46.826;8.650;2022-11-14T07:25:19;0.80;;;0.70;;
11084;SDS011;5596;46.826;8.650;2022-11-14T07:28:05;0.70;;;0.70;;
11084;SDS011;5596;46.826;8.650;2022-11-14T07:30:51;0.60;;;0.60;;
11084;SDS011;5596;46.826;8.650;2022-11-14T07:33:37;0.90;;;0.80;;
11084;SDS011;5596;46.826;8.650;2022-11-14T07:36:24;0.70;;;0.70;;
11084;SDS011;5596;46.826;8.650;2022-11-14T07:39:09;0.87;;;0.73;;
11084;SDS011;5596;46.826;8.650;2022-11-14T07:41:55;0.97;;;0.80;;
11084;SDS011;5596;46.826;8.650;2022-11-14T07:44:41;6.93;;;1.00;;
11084;SDS011;5596;46.826;8.650;2022-11-14T07:47:27;0.80;;;0.80;;
11084;SDS011;5596;46.826;8.650;2022-11-14T07:50:13;0.60;;;0.60;;
11084;SDS011;5596;46.826;8.650;2022-11-14T07:52:59;0.50;;;0.50;;
11084;SDS011;5596;46.826;8.650;2022-11-14T07:55:45;0.50;;;0.50;;
11084;SDS011;5596;46.826;8.650;2022-11-14T07:58:33;0.53;;;0.53;;
11084;SDS011;5596;46.826;8.650;2022-11-14T08:01:19;0.60;;;0.60;;
11084;SDS011;5596;46.826;8.650;2022-11-14T08:04:05;0.50;;;0.50;;
11084;SDS011;5596;46.826;8.650;2022-11-14T08:06:50;0.60;;;0.60;;
11084;SDS011;5596;46.826;8.650;2022-11-14T08:09:38;0.90;;;0.90;;
11084;SDS011;5596;46.826;8.650;2022-11-14T08:12:23;0.90;;;0.90;;
11084;SDS011;5596;46.826;8.650;2022-11-14T08:15:09;0.60;;;0.60;;
11084;SDS011;5596;46.826;8.650;2022-11-14T08:17:58;0.60;;;0.60;;
11084;SDS011;5596;46.826;8.650;2022-11-14T08:20:45;0.60;;;0.60;;
11084;SDS011;5596;46.826;8.650;2022-11-14T08:23:31;0.60;;;0.60;;
11084;SDS011;5596;46.826;8.650;2022-11-14T08:26:18;0.50;;;0.50;;
11084;SDS011;5596;46.826;8.650;2022-11-14T08:29:04;0.60;;;0.60;;
11084;SDS011;5596;46.826;8.650;2022-11-14T08:31:52;0.50;;;0.50;;
11084;SDS011;5596;46.826;8.650;2022-11-14T08:34:38;0.50;;;0.50;;
11084;SDS011;5596;46.826;8.650;2022-11-14T08:37:23;0.50;;;0.50;;
11084;SDS011;5596;46.826;8.650;2022-11-14T08:40:10;0.40;;;0.40;;
11084;SDS011;5596;46.826;8.650;2022-11-14T08:43:01;0.50;;;0.50;;
11084;SDS011;5596;46.826;8.650;2022-11-14T08:45:47;0.50;;;0.50;;
11084;SDS011;5596;46.826;8.650;2022-11-14T08:48:32;0.43;;;0.43;;
11084;SDS011;5596;46.826;8.650;2022-11-14T08:51:18;0.50;;;0.50;;
11084;SDS011;5596;46.826;8.650;2022-11-14T08:54:03;0.40;;;0.40;;
11084;SDS011;5596;46.826;8.650;2022-11-14T08:56:49;0.50;;;0.50;;
11084;SDS011;5596;46.826;8.650;2022-11-14T08:59:36;0.40;;;0.40;;
11084;SDS011;5596;46.826;8.650;2022-11-14T09:02:22;0.50;;;0.50;;
11084;SDS011;5596;46.826;8.650;2022-11-14T09:05:07;0.60;;;0.60;;
11084;SDS011;5596;46.826;8.650;2022-11-14T09:07:53;0.50;;;0.50;;
11084;SDS011;5596;46.826;8.650;2022-11-14T09:10:39;1.10;;;0.40;;
11084;SDS011;5596;46.826;8.650;2022-11-14T09:13:25;0.47;;;0.47;;
11084;SDS011;5596;46.826;8.650;2022-11-14T09:16:13;0.50;;;0.50;;
11084;SDS011;5596;46.826;8.650;2022-11-14T09:18:58;0.40;;;0.40;;
11084;SDS011;5596;46.826;8.650;2022-11-14T09:21:44;0.40;;;0.40;;
11084;SDS011;5596;46.826;8.650;2022-11-14T09:24:30;0.43;;;0.43;;
11084;SDS011;5596;46.826;8.650;2022-11-14T09:27:17;0.40;;;0.40;;
11084;SDS011;5596;46.826;8.650;2022-11-14T09:30:04;0.50;;;0.50;;
11084;SDS011;5596;46.826;8.650;2022-11-14T09:32:51;0.47;;;0.47;;
11084;SDS011;5596;46.826;8.650;2022-11-14T09:35:37;0.57;;;0.57;;
11084;SDS011;5596;46.826;8.650;2022-11-14T09:38:23;0.40;;;0.40;;
11084;SDS011;5596;46.826;8.650;2022-11-14T09:41:14;0.50;;;0.50;;
11084;SDS011;5596;46.826;8.650;2022-11-14T09:44:15;0.50;;;0.50;;
11084;SDS011;5596;46.826;8.650;2022-11-14T09:47:19;0.50;;;0.50;;
11084;SDS011;5596;46.826;8.650;2022-11-14T09:50:13;1.60;;;0.73;;
11084;SDS011;5596;46.826;8.650;2022-11-14T09:53:02;0.40;;;0.40;;
11084;SDS011;5596;46.826;8.650;2022-11-14T09:55:56;0.50;;;0.50;;
11084;SDS011;5596;46.826;8.650;2022-11-14T09:58:42;0.50;;;0.50;;
11084;SDS011;5596;46.826;8.650;2022-11-14T10:01:30;0.47;;;0.47;;
11084;SDS011;5596;46.826;8.650;2022-11-14T10:04:30;0.50;;;0.50;;
11084;SDS011;5596;46.826;8.650;2022-11-14T10:07:32;0.47;;;0.47;;
11084;SDS011;5596;46.826;8.650;2022-11-14T10:10:32;0.50;;;0.50;;
11084;SDS011;5596;46.826;8.650;2022-11-14T10:16:46;0.40;;;0.40;;
11084;SDS011;5596;46.826;8.650;2022-11-14T10:19:40;0.40;;;0.40;;
11084;SDS011;5596;46.826;8.650;2022-11-14T10:22:40;4.30;;;2.10;;
11084;SDS011;5596;46.826;8.650;2022-11-14T10:25:37;0.43;;;0.43;;
11084;SDS011;5596;46.826;8.650;2022-11-14T10:31:43;0.50;;;0.50;;
11084;SDS011;5596;46.826;8.650;2022-11-14T10:34:38;0.50;;;0.50;;
11084;SDS011;5596;46.826;8.650;2022-11-14T10:37:30;0.60;;;0.60;;
11084;SDS011;5596;46.826;8.650;2022-11-14T10:40:22;0.47;;;0.47;;
11084;SDS011;5596;46.826;8.650;2022-11-14T10:43:20;0.50;;;0.50;;
11084;SDS011;5596;46.826;8.650;2022-11-14T10:46:11;0.40;;;0.40;;
11084;SDS011;5596;46.826;8.650;2022-11-14T10:49:00;0.50;;;0.50;;
11084;SDS011;5596;46.826;8.650;2022-11-14T10:51:48;0.30;;;0.30;;
11084;SDS011;5596;46.826;8.650;2022-11-14T10:54:38;0.40;;;0.40;;
11084;SDS011;5596;46.826;8.650;2022-11-14T10:57:29;0.40;;;0.40;;
11084;SDS011;5596;46.826;8.650;2022-11-14T11:00:16;0.53;;;0.53;;
11084;SDS011;5596;46.826;8.650;2022-11-14T11:03:05;0.40;;;0.40;;
11084;SDS011;5596;46.826;8.650;2022-11-14T11:05:51;0.50;;;0.50;;
11084;SDS011;5596;46.826;8.650;2022-11-14T11:08:40;0.30;;;0.30;;
11084;SDS011;5596;46.826;8.650;2022-11-14T11:11:51;0.40;;;0.40;;
11084;SDS011;5596;46.826;8.650;2022-11-14T11:14:42;0.77;;;0.77;;
11084;SDS011;5596;46.826;8.650;2022-11-14T11:17:29;0.47;;;0.47;;
11084;SDS011;5596;46.826;8.650;2022-11-14T11:20:25;0.40;;;0.40;;
11084;SDS011;5596;46.826;8.650;2022-11-14T11:23:16;0.50;;;0.50;;
11084;SDS011;5596;46.826;8.650;2022-11-14T11:26:06;0.50;;;0.50;;
11084;SDS011;5596;46.826;8.650;2022-11-14T11:29:01;0.40;;;0.40;;
11084;SDS011;5596;46.826;8.650;2022-11-14T11:31:52;0.53;;;0.53;;
11084;SDS011;5596;46.826;8.650;2022-11-14T11:34:38;0.60;;;0.60;;
11084;SDS011;5596;46.826;8.650;2022-11-14T11:37:26;0.60;;;0.60;;
11084;SDS011;5596;46.826;8.650;2022-11-14T11:40:16;0.50;;;0.50;;
11084;SDS011;5596;46.826;8.650;2022-11-14T11:43:08;0.60;;;0.60;;
11084;SDS011;5596;46.826;8.650;2022-11-14T11:45:58;0.60;;;0.60;;
11084;SDS011;5596;46.826;8.650;2022-11-14T11:48:49;0.80;;;0.80;;
11084;SDS011;5596;46.826;8.650;2022-11-14T11:51:40;0.90;;;0.90;;
11084;SDS011;5596;46.826;8.650;2022-11-14T11:54:29;1.23;;;0.80;;
11084;SDS011;5596;46.826;8.650;2022-11-14T11:57:22;0.60;;;0.60;;
11084;SDS011;5596;46.826;8.650;2022-11-14T12:00:14;0.60;;;0.60;;
11084;SDS011;5596;46.826;8.650;2022-11-14T12:03:01;0.50;;;0.50;;
11084;SDS011;5596;46.826;8.650;2022-11-14T12:05:51;0.50;;;0.50;;
11084;SDS011;5596;46.826;8.650;2022-11-14T12:08:47;0.60;;;0.60;;
11084;SDS011;5596;46.826;8.650;2022-11-14T12:11:47;0.60;;;0.60;;
11084;SDS011;5596;46.826;8.650;2022-11-14T12:14:46;1.30;;;0.50;;
11084;SDS011;5596;46.826;8.650;2022-11-14T12:17:48;0.60;;;0.60;;
11084;SDS011;5596;46.826;8.650;2022-11-14T12:20:58;0.40;;;0.40;;
11084;SDS011;5596;46.826;8.650;2022-11-14T12:24:24;0.50;;;0.50;;
11084;SDS011;5596;46.826;8.650;2022-11-14T12:27:28;1.13;;;0.60;;
11084;SDS011;5596;46.826;8.650;2022-11-14T12:30:32;0.60;;;0.60;;
11084;SDS011;5596;46.826;8.650;2022-11-14T12:33:20;1.27;;;1.00;;
11084;SDS011;5596;46.826;8.650;2022-11-14T12:36:11;1.10;;;0.90;;
11084;SDS011;5596;46.826;8.650;2022-11-14T12:38:57;1.33;;;0.90;;
11084;SDS011;5596;46.826;8.650;2022-11-14T12:41:44;0.77;;;0.70;;
11084;SDS011;5596;46.826;8.650;2022-11-14T12:44:31;0.70;;;0.70;;
11084;SDS011;5596;46.826;8.650;2022-11-14T12:47:20;0.70;;;0.70;;
11084;SDS011;5596;46.826;8.650;2022-11-14T12:53:39;2.93;;;0.67;;
11084;SDS011;5596;46.826;8.650;2022-11-14T12:59:48;0.63;;;0.63;;
11084;SDS011;5596;46.826;8.650;2022-11-14T13:02:50;0.50;;;0.50;;
11084;SDS011;5596;46.826;8.650;2022-11-14T13:05:58;0.50;;;0.50;;
11084;SDS011;5596;46.826;8.650;2022-11-14T13:12:25;1.80;;;0.60;;
11084;SDS011;5596;46.826;8.650;2022-11-14T13:15:31;0.57;;;0.57;;
11084;SDS011;5596;46.826;8.650;2022-11-14T13:18:35;0.50;;;0.50;;
11084;SDS011;5596;46.826;8.650;2022-11-14T13:25:17;0.63;;;0.63;;
11084;SDS011;5596;46.826;8.650;2022-11-14T13:31:49;0.50;;;0.50;;
11084;SDS011;5596;46.826;8.650;2022-11-14T13:34:45;0.40;;;0.40;;
11084;SDS011;5596;46.826;8.650;2022-11-14T13:37:50;0.50;;;0.50;;
11084;SDS011;5596;46.826;8.650;2022-11-14T13:40:58;0.50;;;0.50;;
11084;SDS011;5596;46.826;8.650;2022-11-14T13:44:00;0.50;;;0.50;;
11084;SDS011;5596;46.826;8.650;2022-11-14T13:47:03;0.50;;;0.50;;
11084;SDS011;5596;46.826;8.650;2022-11-14T13:50:01;0.63;;;0.63;;
11084;SDS011;5596;46.826;8.650;2022-11-14T13:52:50;0.70;;;0.70;;
11084;SDS011;5596;46.826;8.650;2022-11-14T13:55:37;0.60;;;0.60;;
11084;SDS011;5596;46.826;8.650;2022-11-14T14:02:04;0.60;;;0.60;;
11084;SDS011;5596;46.826;8.650;2022-11-14T14:05:09;0.53;;;0.53;;
11084;SDS011;5596;46.826;8.650;2022-11-14T14:08:12;0.60;;;0.60;;
11084;SDS011;5596;46.826;8.650;2022-11-14T14:11:07;0.60;;;0.60;;
11084;SDS011;5596;46.826;8.650;2022-11-14T14:14:21;0.50;;;0.50;;
11084;SDS011;5596;46.826;8.650;2022-11-14T14:17:21;0.50;;;0.50;;
11084;SDS011;5596;46.826;8.650;2022-11-14T14:20:16;0.40;;;0.40;;
11084;SDS011;5596;46.826;8.650;2022-11-14T14:23:14;0.47;;;0.47;;
11084;SDS011;5596;46.826;8.650;2022-11-14T14:26:12;0.50;;;0.50;;
11084;SDS011;5596;46.826;8.650;2022-11-14T14:29:10;0.50;;;0.50;;
11084;SDS011;5596;46.826;8.650;2022-11-14T14:32:09;0.43;;;0.43;;
11084;SDS011;5596;46.826;8.650;2022-11-14T14:34:57;0.60;;;0.60;;
11084;SDS011;5596;46.826;8.650;2022-11-14T14:37:48;0.70;;;0.70;;
11084;SDS011;5596;46.826;8.650;2022-11-14T14:40:36;0.60;;;0.60;;
11084;SDS011;5596;46.826;8.650;2022-11-14T14:43:25;0.70;;;0.70;;
11084;SDS011;5596;46.826;8.650;2022-11-14T14:46:24;0.60;;;0.50;;
11084;SDS011;5596;46.826;8.650;2022-11-14T14:49:15;0.60;;;0.60;;
11084;SDS011;5596;46.826;8.650;2022-11-14T14:52:18;0.50;;;0.50;;
11084;SDS011;5596;46.826;8.650;2022-11-14T14:55:05;0.67;;;0.67;;
11084;SDS011;5596;46.826;8.650;2022-11-14T14:58:14;0.70;;;0.70;;
11084;SDS011;5596;46.826;8.650;2022-11-14T15:01:08;0.60;;;0.60;;
11084;SDS011;5596;46.826;8.650;2022-11-14T15:04:00;0.60;;;0.60;;
11084;SDS011;5596;46.826;8.650;2022-11-14T15:06:48;0.70;;;0.70;;
11084;SDS011;5596;46.826;8.650;2022-11-14T15:09:36;0.50;;;0.50;;
11084;SDS011;5596;46.826;8.650;2022-11-14T15:12:22;1.17;;;1.00;;
11084;SDS011;5596;46.826;8.650;2022-11-14T15:15:11;0.50;;;0.50;;
11084;SDS011;5596;46.826;8.650;2022-11-14T15:17:57;1.33;;;0.60;;
11084;SDS011;5596;46.826;8.650;2022-11-14T15:21:05;0.60;;;0.60;;
11084;SDS011;5596;46.826;8.650;2022-11-14T15:23:58;0.60;;;0.60;;
11084;SDS011;5596;46.826;8.650;2022-11-14T15:26:47;0.50;;;0.50;;
11084;SDS011;5596;46.826;8.650;2022-11-14T15:29:34;0.60;;;0.60;;
11084;SDS011;5596;46.826;8.650;2022-11-14T15:32:20;1.00;;;0.60;;
11084;SDS011;5596;46.826;8.650;2022-11-14T15:35:09;0.63;;;0.63;;
11084;SDS011;5596;46.826;8.650;2022-11-14T15:38:18;0.70;;;0.70;;
11084;SDS011;5596;46.826;8.650;2022-11-14T15:47:17;0.50;;;0.50;;
11084;SDS011;5596;46.826;8.650;2022-11-14T15:50:20;0.60;;;0.60;;
11084;SDS011;5596;46.826;8.650;2022-11-14T15:53:15;0.60;;;0.60;;
11084;SDS011;5596;46.826;8.650;2022-11-14T15:56:08;0.70;;;0.70;;
11084;SDS011;5596;46.826;8.650;2022-11-14T15:58:55;1.23;;;0.60;;
11084;SDS011;5596;46.826;8.650;2022-11-14T16:01:43;0.60;;;0.60;;
11084;SDS011;5596;46.826;8.650;2022-11-14T16:04:32;0.60;;;0.60;;
11084;SDS011;5596;46.826;8.650;2022-11-14T16:07:20;0.70;;;0.70;;
11084;SDS011;5596;46.826;8.650;2022-11-14T16:10:11;0.60;;;0.60;;
11084;SDS011;5596;46.826;8.650;2022-11-14T16:12:58;0.67;;;0.67;;
11084;SDS011;5596;46.826;8.650;2022-11-14T16:15:43;0.60;;;0.60;;
11084;SDS011;5596;46.826;8.650;2022-11-14T16:18:30;0.60;;;0.60;;
11084;SDS011;5596;46.826;8.650;2022-11-14T16:21:16;0.70;;;0.70;;
11084;SDS011;5596;46.826;8.650;2022-11-14T16:24:03;0.60;;;0.60;;
11084;SDS011;5596;46.826;8.650;2022-11-14T16:26:49;0.60;;;0.60;;
11084;SDS011;5596;46.826;8.650;2022-11-14T16:29:35;0.60;;;0.60;;
11084;SDS011;5596;46.826;8.650;2022-11-14T16:32:20;1.57;;;0.60;;
11084;SDS011;5596;46.826;8.650;2022-11-14T16:35:12;0.70;;;0.70;;
11084;SDS011;5596;46.826;8.650;2022-11-14T16:37:58;0.67;;;0.67;;
11084;SDS011;5596;46.826;8.650;2022-11-14T16:40:44;0.70;;;0.70;;
11084;SDS011;5596;46.826;8.650;2022-11-14T16:43:29;0.73;;;0.73;;
11084;SDS011;5596;46.826;8.650;2022-11-14T16:46:15;0.77;;;0.77;;
11084;SDS011;5596;46.826;8.650;2022-11-14T16:49:00;1.93;;;0.60;;
11084;SDS011;5596;46.826;8.650;2022-11-14T16:51:47;0.60;;;0.60;;
11084;SDS011;5596;46.826;8.650;2022-11-14T16:54:34;0.70;;;0.70;;
11084;SDS011;5596;46.826;8.650;2022-11-14T16:57:19;0.70;;;0.70;;
11084;SDS011;5596;46.826;8.650;2022-11-14T17:00:06;0.70;;;0.70;;
11084;SDS011;5596;46.826;8.650;2022-11-14T17:02:53;0.80;;;0.80;;
11084;SDS011;5596;46.826;8.650;2022-11-14T17:05:41;0.80;;;0.80;;
11084;SDS011;5596;46.826;8.650;2022-11-14T17:08:28;0.60;;;0.60;;
11084;SDS011;5596;46.826;8.650;2022-11-14T17:11:13;0.80;;;0.80;;
11084;SDS011;5596;46.826;8.650;2022-11-14T17:13:59;1.30;;;0.80;;
11084;SDS011;5596;46.826;8.650;2022-11-14T17:16:45;0.80;;;0.80;;
11084;SDS011;5596;46.826;8.650;2022-11-14T17:19:31;0.73;;;0.73;;
11084;SDS011;5596;46.826;8.650;2022-11-14T17:22:17;0.80;;;0.80;;
11084;SDS011;5596;46.826;8.650;2022-11-14T17:25:08;2.10;;;0.70;;
11084;SDS011;5596;46.826;8.650;2022-11-14T17:27:54;1.63;;;0.60;;
11084;SDS011;5596;46.826;8.650;2022-11-14T17:30:42;0.70;;;0.70;;
11084;SDS011;5596;46.826;8.650;2022-11-14T17:33:28;0.70;;;0.70;;
11084;SDS011;5596;46.826;8.650;2022-11-14T17:36:14;0.70;;;0.70;;
11084;SDS011;5596;46.826;8.650;2022-11-14T17:39:00;0.70;;;0.70;;
11084;SDS011;5596;46.826;8.650;2022-11-14T17:41:47;0.70;;;0.70;;
11084;SDS011;5596;46.826;8.650;2022-11-14T17:44:33;0.80;;;0.80;;
11084;SDS011;5596;46.826;8.650;2022-11-14T17:47:19;0.80;;;0.80;;